createdAt,value
2024-02-11T00:01:58.844Z,9.11
2024-02-11T00:04:29.697Z,9.06
2024-02-11T00:07:11.994Z,9.04
2024-02-11T00:09:49.685Z,9.05
2024-02-11T00:12:19.935Z,9.03
2024-02-11T00:15:02.326Z,9.00
2024-02-11T00:17:33.178Z,9.04
2024-02-11T00:20:12.756Z,9.09
2024-02-11T00:22:45.954Z,9.01
2024-02-11T00:25:25.817Z,9.07
2024-02-11T00:28:04.882Z,9.10
2024-02-11T00:30:43.159Z,8.94
2024-02-11T00:33:26.871Z,8.89
2024-02-11T00:36:04.054Z,8.96
2024-02-11T00:38:44.311Z,8.94
2024-02-11T00:41:22.101Z,8.98
2024-02-11T00:43:59.250Z,9.01
2024-02-11T00:46:31.686Z,9.00
2024-02-11T00:49:17.596Z,9.04
2024-02-11T00:51:54.844Z,8.98
2024-02-11T00:54:29.509Z,9.02
2024-02-11T00:57:13.306Z,9.08
2024-02-11T00:59:51.362Z,8.88
2024-02-11T01:02:39.409Z,8.96
2024-02-11T01:05:34.910Z,8.97
2024-02-11T01:08:13.901Z,8.95
2024-02-11T01:10:46.001Z,8.88
2024-02-11T01:13:31.750Z,9.00
2024-02-11T01:16:04.711Z,8.91
2024-02-11T01:18:44.857Z,8.97
2024-02-11T01:21:27.186Z,8.95
2024-02-11T01:24:05.031Z,9.00
2024-02-11T01:26:45.236Z,8.70
2024-02-11T01:29:20.440Z,9.02
2024-02-11T01:32:00.208Z,8.86
2024-02-11T01:34:37.112Z,8.89
2024-02-11T01:37:25.074Z,8.93
2024-02-11T01:40:02.782Z,8.96
2024-02-11T01:42:39.183Z,8.96
2024-02-11T01:45:14.797Z,8.87
2024-02-11T01:47:49.534Z,8.94
2024-02-11T01:50:25.054Z,8.91
2024-02-11T01:53:12.012Z,8.78
2024-02-11T01:55:48.976Z,8.84
2024-02-11T01:58:33.456Z,8.96
2024-02-11T02:01:16.117Z,8.89
2024-02-11T02:03:52.779Z,8.85
2024-02-11T02:06:25.343Z,8.95
2024-02-11T02:08:57.273Z,8.85
2024-02-11T02:11:32.170Z,8.82
2024-02-11T02:14:07.255Z,8.69
2024-02-11T02:16:50.919Z,8.72
2024-02-11T02:19:26.122Z,8.91
2024-02-11T02:22:02.136Z,8.88
2024-02-11T02:24:38.502Z,8.92
2024-02-11T02:27:10.255Z,8.95
2024-02-11T02:29:48.022Z,8.86
2024-02-11T02:32:37.423Z,8.82
2024-02-11T02:35:13.654Z,8.84
2024-02-11T02:37:45.230Z,8.74
2024-02-11T02:40:30.380Z,8.78
2024-02-11T02:43:21.562Z,8.82
2024-02-11T02:45:56.315Z,8.84
2024-02-11T02:48:30.165Z,8.91
2024-02-11T02:51:06.424Z,8.77
2024-02-11T02:53:39.569Z,8.77
2024-02-11T02:56:18.398Z,8.86
2024-02-11T02:58:53.122Z,8.89
2024-02-11T03:01:28.588Z,8.94
2024-02-11T03:03:58.265Z,8.93
2024-02-11T03:06:39.471Z,8.93
2024-02-11T03:09:12.957Z,8.82
2024-02-11T03:11:46.795Z,8.88
2024-02-11T03:14:29.993Z,8.89
2024-02-11T03:17:01.439Z,8.87
2024-02-11T03:19:37.409Z,8.70
2024-02-11T03:22:16.291Z,8.81
2024-02-11T03:24:46.434Z,8.85
2024-02-11T03:27:29.757Z,8.73
2024-02-11T03:30:30.395Z,8.77
2024-02-11T03:33:08.729Z,8.79
2024-02-11T03:35:44.008Z,8.90
2024-02-11T03:38:30.024Z,8.68
2024-02-11T03:40:59.846Z,8.46
2024-02-11T03:43:37.514Z,8.90
2024-02-11T03:46:15.641Z,8.92
2024-02-11T03:48:47.020Z,8.97
2024-02-11T03:51:20.799Z,8.97
2024-02-11T03:54:10.343Z,8.72
2024-02-11T03:56:46.868Z,8.92
2024-02-11T03:59:31.102Z,8.97
2024-02-11T04:02:06.032Z,8.96
2024-02-11T04:04:34.674Z,8.92
2024-02-11T04:07:06.267Z,8.73
2024-02-11T04:09:39.413Z,8.99
2024-02-11T04:12:15.398Z,8.93
2024-02-11T04:14:56.648Z,8.98
2024-02-11T04:17:32.999Z,8.97
2024-02-11T04:20:18.418Z,9.06
2024-02-11T04:22:55.732Z,8.93
2024-02-11T04:25:35.402Z,9.03
2024-02-11T04:28:09.982Z,9.02
2024-02-11T04:30:45.848Z,8.86
2024-02-11T04:33:23.319Z,8.93
2024-02-11T04:35:54.344Z,8.76
2024-02-11T04:38:37.367Z,8.88
2024-02-11T04:41:17.373Z,8.96
2024-02-11T04:46:46.912Z,8.91
2024-02-11T04:49:21.039Z,8.86
2024-02-11T04:52:02.968Z,8.79
2024-02-11T04:54:37.168Z,8.83
2024-02-11T04:57:11.082Z,8.84
2024-02-11T04:59:47.744Z,8.79
2024-02-11T05:02:19.705Z,8.85
2024-02-11T05:04:53.943Z,8.76
2024-02-11T05:07:31.935Z,8.90
2024-02-11T05:10:08.995Z,8.82
2024-02-11T05:12:44.115Z,8.68
2024-02-11T05:15:26.424Z,8.78
2024-02-11T05:18:02.719Z,8.83
2024-02-11T05:20:35.428Z,8.83
2024-02-11T05:23:15.563Z,8.74
2024-02-11T05:25:56.389Z,8.82
2024-02-11T05:28:31.264Z,8.87
2024-02-11T05:31:15.182Z,8.74
2024-02-11T05:33:49.039Z,8.81
2024-02-11T05:36:24.424Z,8.81
2024-02-11T05:38:57.775Z,8.87
2024-02-11T05:41:40.151Z,8.89
2024-02-11T05:44:18.161Z,8.85
2024-02-11T05:46:56.643Z,8.67
2024-02-11T05:49:32.918Z,8.77
2024-02-11T05:55:24.659Z,8.77
2024-02-11T05:58:02.073Z,8.78
2024-02-11T06:00:41.914Z,8.76
2024-02-11T06:03:24.990Z,8.67
2024-02-11T06:06:01.753Z,8.76
2024-02-11T06:08:41.141Z,8.78
2024-02-11T06:11:22.235Z,8.71
2024-02-11T06:13:59.323Z,8.82
2024-02-11T06:16:43.713Z,8.78
2024-02-11T06:19:16.012Z,8.76
2024-02-11T06:21:49.801Z,8.75
2024-02-11T06:24:28.966Z,8.74
2024-02-11T06:27:02.033Z,8.74
2024-02-11T06:29:35.935Z,8.75
2024-02-11T06:32:06.752Z,8.66
2024-02-11T06:34:42.571Z,8.47
2024-02-11T06:37:23.047Z,8.75
2024-02-11T06:42:54.721Z,8.81
2024-02-11T06:45:31.414Z,8.90
2024-02-11T06:48:07.855Z,8.91
2024-02-11T06:50:39.047Z,8.47
2024-02-11T06:53:18.277Z,8.88
2024-02-11T06:55:56.509Z,8.81
2024-02-11T06:58:39.206Z,8.93
2024-02-11T07:01:18.391Z,8.87
2024-02-11T07:03:51.395Z,8.96
2024-02-11T07:06:31.874Z,8.98
2024-02-11T07:09:04.916Z,8.96
2024-02-11T07:11:39.191Z,9.05
2024-02-11T07:14:19.298Z,9.06
2024-02-11T07:16:57.818Z,9.06
2024-02-11T07:19:31.208Z,8.92
2024-02-11T07:22:07.761Z,9.01
2024-02-11T07:24:40.931Z,9.05
2024-02-11T07:27:18.759Z,9.07
2024-02-11T07:29:57.098Z,9.09
2024-02-11T07:32:33.246Z,8.98
2024-02-11T07:35:04.400Z,9.11
2024-02-11T07:37:40.264Z,9.15
2024-02-11T07:40:18.095Z,9.10
2024-02-11T07:42:55.524Z,9.06
2024-02-11T07:45:28.053Z,9.08
2024-02-11T07:48:05.745Z,9.17
2024-02-11T07:50:43.606Z,9.17
2024-02-11T07:53:21.134Z,9.23
2024-02-11T07:55:57.747Z,9.22
2024-02-11T07:58:39.999Z,9.21
2024-02-11T08:01:12.420Z,9.31
2024-02-11T08:03:45.236Z,9.33
2024-02-11T08:06:28.721Z,9.41
2024-02-11T08:09:20.891Z,9.34
2024-02-11T08:11:57.368Z,9.41
2024-02-11T08:14:31.432Z,9.46
2024-02-11T08:17:06.827Z,9.50
2024-02-11T08:19:45.083Z,9.47
2024-02-11T08:22:17.391Z,9.43
2024-02-11T08:24:51.583Z,9.46
2024-02-11T08:27:22.605Z,9.49
2024-02-11T08:30:08.987Z,9.47
2024-02-11T08:32:42.643Z,9.50
2024-02-11T08:35:24.286Z,9.48
2024-02-11T08:37:59.519Z,9.57
2024-02-11T08:40:28.570Z,9.57
2024-02-11T08:43:03.518Z,9.51
2024-02-11T08:45:38.392Z,9.56
2024-02-11T08:48:09.524Z,9.57
2024-02-11T08:50:54.365Z,9.58
2024-02-11T08:53:29.426Z,9.61
2024-02-11T08:56:07.436Z,9.74
2024-02-11T08:58:54.930Z,9.82
2024-02-11T09:01:33.741Z,9.76
2024-02-11T09:04:04.898Z,9.77
2024-02-11T09:06:43.752Z,9.77
2024-02-11T09:09:28.253Z,9.82
2024-02-11T09:12:08.218Z,9.91
2024-02-11T09:14:51.869Z,9.92
2024-02-11T09:17:29.694Z,9.88
2024-02-11T09:20:08.520Z,9.98
2024-02-11T09:22:40.901Z,10.07
2024-02-11T09:25:14.470Z,9.98
2024-02-11T09:27:54.793Z,10.01
2024-02-11T09:30:31.912Z,10.07
2024-02-11T09:36:04.487Z,10.25
2024-02-11T09:38:42.620Z,10.33
2024-02-11T09:41:25.840Z,10.38
2024-02-11T09:44:06.205Z,10.33
2024-02-11T09:46:41.771Z,10.39
2024-02-11T09:49:37.844Z,10.23
2024-02-11T09:52:22.447Z,10.31
2024-02-11T09:55:04.697Z,10.26
2024-02-11T09:57:38.257Z,10.20
2024-02-11T10:00:11.246Z,10.23
2024-02-11T10:02:45.083Z,10.22
2024-02-11T10:05:14.971Z,10.24
2024-02-11T10:07:49.747Z,10.27
2024-02-11T10:10:24.243Z,10.29
2024-02-11T10:12:53.303Z,10.36
2024-02-11T10:15:26.299Z,10.37
2024-02-11T10:18:04.807Z,10.50
2024-02-11T10:20:50.942Z,10.55
2024-02-11T10:23:34.516Z,10.58
2024-02-11T10:26:25.647Z,10.56
2024-02-11T10:29:07.739Z,10.49
2024-02-11T10:31:39.243Z,10.45
2024-02-11T10:34:18.444Z,10.55
2024-02-11T10:36:54.939Z,10.47
2024-02-11T10:39:35.308Z,10.61
2024-02-11T10:42:11.641Z,10.59
2024-02-11T10:44:44.729Z,10.66
2024-02-11T10:47:18.064Z,10.29
2024-02-11T10:49:52.771Z,10.56
2024-02-11T10:52:27.607Z,10.56
2024-02-11T10:55:11.677Z,10.60
2024-02-11T10:58:03.400Z,10.61
2024-02-11T11:00:38.818Z,10.58
2024-02-11T11:03:13.284Z,10.56
2024-02-11T11:05:49.539Z,10.52
2024-02-11T11:08:36.689Z,10.57
2024-02-11T11:11:17.643Z,10.56
2024-02-11T11:13:53.062Z,10.57
2024-02-11T11:16:56.577Z,10.63
2024-02-11T11:19:39.438Z,10.72
2024-02-11T11:22:15.079Z,10.75
2024-02-11T11:24:53.158Z,10.82
2024-02-11T11:27:33.151Z,10.77
2024-02-11T11:30:15.123Z,10.89
2024-02-11T11:35:45.460Z,10.95
2024-02-11T11:38:15.281Z,11.04
2024-02-11T11:40:49.705Z,10.95
2024-02-11T11:46:19.753Z,10.74
2024-02-11T11:48:57.094Z,11.09
2024-02-11T11:51:35.579Z,11.17
2024-02-11T11:54:11.411Z,11.12
2024-02-11T11:56:59.701Z,11.32
2024-02-11T11:59:39.126Z,11.34
2024-02-11T12:02:16.088Z,11.23
2024-02-11T12:04:50.142Z,11.42
2024-02-11T12:07:20.824Z,11.29
2024-02-11T12:10:01.923Z,11.50
2024-02-11T12:12:40.387Z,11.49
2024-02-11T12:15:22.686Z,11.63
2024-02-11T12:17:56.193Z,11.50
2024-02-11T12:20:30.049Z,11.53
2024-02-11T12:23:12.007Z,11.20
2024-02-11T12:25:46.520Z,11.55
2024-02-11T12:28:28.630Z,11.40
2024-02-11T12:31:17.796Z,11.48
2024-02-11T12:34:00.245Z,11.55
2024-02-11T12:36:38.356Z,11.50
2024-02-11T12:39:18.537Z,11.58
2024-02-11T12:42:06.609Z,11.58
2024-02-11T12:44:44.825Z,11.48
2024-02-11T12:47:18.772Z,11.50
2024-02-11T12:49:56.493Z,11.41
2024-02-11T12:52:38.223Z,11.33
2024-02-11T12:55:12.362Z,11.30
2024-02-11T12:57:49.473Z,11.28
2024-02-11T13:00:24.464Z,11.44
2024-02-11T13:05:40.766Z,11.60
2024-02-11T13:08:19.472Z,11.55
2024-02-11T13:10:57.749Z,11.75
2024-02-11T13:13:29.338Z,11.75
2024-02-11T13:15:58.450Z,11.74
2024-02-11T13:18:35.117Z,11.73
2024-02-11T13:21:20.132Z,11.84
2024-02-11T13:23:54.962Z,11.83
2024-02-11T13:26:29.737Z,11.92
2024-02-11T13:29:06.058Z,11.83
2024-02-11T13:31:41.079Z,11.89
2024-02-11T13:34:22.324Z,11.87
2024-02-11T13:36:58.002Z,11.95
2024-02-11T13:39:34.529Z,12.10
2024-02-11T13:42:06.697Z,12.20
2024-02-11T13:44:50.514Z,12.13
2024-02-11T13:47:22.025Z,12.18
2024-02-11T13:49:59.084Z,12.12
2024-02-11T13:52:32.894Z,12.04
2024-02-11T13:55:08.504Z,11.95
2024-02-11T13:57:44.901Z,12.06
2024-02-11T14:00:26.977Z,12.10
2024-02-11T14:03:03.353Z,12.11
2024-02-11T14:05:36.117Z,12.17
2024-02-11T14:08:17.890Z,12.17
2024-02-11T14:10:50.146Z,12.24
2024-02-11T14:16:24.951Z,12.03
2024-02-11T14:18:56.795Z,11.95
2024-02-11T14:21:34.081Z,11.88
2024-02-11T14:24:11.093Z,11.83
2024-02-11T14:29:24.833Z,11.81
2024-02-11T14:32:02.480Z,11.81
2024-02-11T14:34:35.235Z,11.91
2024-02-11T14:37:11.050Z,11.91
2024-02-11T14:39:46.264Z,11.97
2024-02-11T14:42:19.043Z,11.86
2024-02-11T14:44:56.734Z,11.76
2024-02-11T14:47:31.855Z,11.73
2024-02-11T14:50:06.211Z,11.78
2024-02-11T14:52:45.039Z,11.79
2024-02-11T14:55:29.730Z,11.82
2024-02-11T14:58:15.614Z,11.76
2024-02-11T15:00:54.165Z,11.72
2024-02-11T15:03:37.961Z,11.52
2024-02-11T15:06:20.007Z,11.42
2024-02-11T15:08:55.763Z,11.61
2024-02-11T15:11:29.883Z,11.53
2024-02-11T15:14:15.653Z,11.47
2024-02-11T15:17:01.701Z,11.49
2024-02-11T15:19:40.166Z,11.51
2024-02-11T15:25:03.921Z,11.45
2024-02-11T15:27:38.832Z,11.27
2024-02-11T15:30:16.013Z,11.36
2024-02-11T15:32:52.614Z,11.40
2024-02-11T15:35:34.313Z,11.29
2024-02-11T15:38:36.652Z,11.18
2024-02-11T15:41:10.946Z,11.13
2024-02-11T15:43:58.589Z,11.10
2024-02-11T15:46:31.793Z,11.19
2024-02-11T15:49:08.687Z,11.12
2024-02-11T15:51:40.415Z,11.07
2024-02-11T15:54:16.193Z,10.98
2024-02-11T15:56:53.342Z,10.99
2024-02-11T15:59:26.029Z,10.94
2024-02-11T16:02:05.900Z,10.98
2024-02-11T16:04:50.920Z,10.96
2024-02-11T16:07:24.120Z,10.85
2024-02-11T16:10:09.829Z,10.90
2024-02-11T16:13:06.299Z,10.81
2024-02-11T16:15:39.073Z,10.78
2024-02-11T16:18:11.107Z,10.60
2024-02-11T16:20:59.790Z,10.78
2024-02-11T16:23:41.627Z,10.67
2024-02-11T16:26:35.773Z,10.71
2024-02-11T16:29:08.279Z,10.66
2024-02-11T16:32:01.809Z,10.63
2024-02-11T16:34:34.006Z,10.66
2024-02-11T16:37:08.643Z,10.65
2024-02-11T16:39:39.174Z,10.65
2024-02-11T16:42:18.606Z,10.59
2024-02-11T16:44:54.803Z,10.34
2024-02-11T16:47:42.040Z,10.60
2024-02-11T16:50:20.735Z,10.61
2024-02-11T16:52:50.108Z,10.59
2024-02-11T16:55:33.915Z,10.58
2024-02-11T16:58:07.820Z,10.53
2024-02-11T17:00:43.851Z,10.62
2024-02-11T17:03:16.084Z,10.51
2024-02-11T17:05:56.138Z,10.36
2024-02-11T17:08:29.488Z,10.38
2024-02-11T17:11:08.078Z,10.37
2024-02-11T17:13:54.750Z,10.34
2024-02-11T17:16:28.677Z,10.34
2024-02-11T17:19:02.154Z,10.46
2024-02-11T17:21:33.334Z,10.39
2024-02-11T17:24:10.136Z,10.27
2024-02-11T17:26:44.389Z,10.38
2024-02-11T17:29:17.383Z,10.38
2024-02-11T17:31:53.829Z,10.09
2024-02-11T17:34:32.994Z,10.31
2024-02-11T17:37:11.613Z,10.37
2024-02-11T17:39:53.964Z,10.37
2024-02-11T17:42:40.162Z,10.37
2024-02-11T17:45:14.911Z,10.39
2024-02-11T17:47:53.262Z,10.25
2024-02-11T17:50:22.021Z,10.18
2024-02-11T17:52:56.639Z,10.11
2024-02-11T17:55:32.827Z,10.14
2024-02-11T17:58:13.703Z,10.08
2024-02-11T18:00:57.056Z,10.03
2024-02-11T18:03:34.764Z,9.83
2024-02-11T18:06:16.177Z,9.97
2024-02-11T18:08:47.185Z,9.88
2024-02-11T18:11:22.690Z,9.92
2024-02-11T18:14:11.737Z,9.88
2024-02-11T18:16:45.586Z,9.89
2024-02-11T18:19:17.658Z,9.80
2024-02-11T18:22:00.189Z,9.91
2024-02-11T18:24:34.923Z,9.86
2024-02-11T18:30:02.935Z,9.78
2024-02-11T18:32:37.075Z,9.74
2024-02-11T18:35:28.778Z,9.79
2024-02-11T18:38:32.697Z,9.71
2024-02-11T18:41:03.900Z,9.69
2024-02-11T18:43:44.959Z,9.76
2024-02-11T18:46:23.148Z,9.77
2024-02-11T18:49:01.140Z,9.77
2024-02-11T18:51:39.080Z,9.72
2024-02-11T18:54:14.786Z,9.69
2024-02-11T18:56:52.420Z,9.69
2024-02-11T18:59:24.095Z,9.65
2024-02-11T19:01:55.179Z,9.67
2024-02-11T19:04:29.216Z,9.53
2024-02-11T19:07:04.620Z,9.55
2024-02-11T19:09:45.447Z,9.66
2024-02-11T19:12:20.813Z,9.66
2024-02-11T19:14:53.149Z,9.60
2024-02-11T19:17:27.070Z,9.58
2024-02-11T19:20:01.882Z,9.63
2024-02-11T19:22:51.563Z,9.55
2024-02-11T19:25:24.055Z,9.51
2024-02-11T19:28:00.263Z,9.53
2024-02-11T19:30:37.238Z,9.44
2024-02-11T19:33:16.569Z,9.64
2024-02-11T19:36:03.362Z,9.63
2024-02-11T19:38:41.645Z,9.58
2024-02-11T19:41:15.302Z,9.59
2024-02-11T19:43:50.723Z,9.60
2024-02-11T19:46:20.586Z,9.58
2024-02-11T19:48:58.919Z,9.52
2024-02-11T19:51:34.238Z,9.40
2024-02-11T19:54:07.899Z,9.43
2024-02-11T19:56:39.807Z,9.42
2024-02-11T19:59:17.462Z,9.42
2024-02-11T20:01:54.239Z,9.46
2024-02-11T20:04:32.039Z,9.41
2024-02-11T20:07:11.193Z,9.40
2024-02-11T20:09:48.049Z,9.38
2024-02-11T20:12:27.196Z,9.38
2024-02-11T20:15:00.234Z,9.39
2024-02-11T20:17:36.004Z,9.33
2024-02-11T20:20:07.379Z,9.31
2024-02-11T20:22:40.583Z,9.33
2024-02-11T20:25:15.979Z,9.35
2024-02-11T20:27:47.880Z,9.17
2024-02-11T20:30:17.896Z,9.12
2024-02-11T20:35:52.762Z,9.18
2024-02-11T20:38:29.150Z,9.22
2024-02-11T20:41:16.413Z,9.24
2024-02-11T20:43:53.876Z,9.22
2024-02-11T20:46:29.433Z,9.21
2024-02-11T20:49:01.702Z,9.26
2024-02-11T20:51:34.096Z,9.20
2024-02-11T20:54:08.841Z,9.13
2024-02-11T20:56:44.694Z,9.08
2024-02-11T20:59:19.821Z,9.18
2024-02-11T21:01:56.349Z,9.18
2024-02-11T21:04:27.886Z,9.16
2024-02-11T21:07:12.242Z,9.18
2024-02-11T21:10:02.239Z,9.18
2024-02-11T21:12:40.580Z,9.18
2024-02-11T21:15:16.464Z,9.25
2024-02-11T21:17:50.674Z,9.21
2024-02-11T21:20:28.970Z,9.18
2024-02-11T21:23:04.894Z,8.98
2024-02-11T21:25:40.870Z,8.99
2024-02-11T21:28:15.743Z,9.13
2024-02-11T21:30:46.101Z,9.11
2024-02-11T21:33:34.906Z,9.11
2024-02-11T21:36:10.779Z,9.04
2024-02-11T21:38:52.857Z,9.06
2024-02-11T21:41:28.273Z,9.01
2024-02-11T21:44:01.069Z,9.07
2024-02-11T21:46:36.154Z,9.04
2024-02-11T21:49:06.242Z,8.87
2024-02-11T21:51:42.790Z,8.98
2024-02-11T21:54:13.589Z,8.95
2024-02-11T21:56:52.680Z,8.94
2024-02-11T21:59:32.892Z,8.82
2024-02-11T22:02:13.348Z,8.75
2024-02-11T22:04:46.279Z,8.75
2024-02-11T22:07:18.106Z,8.50
2024-02-11T22:09:51.293Z,8.79
2024-02-11T22:12:19.639Z,8.87
2024-02-11T22:15:05.067Z,8.92
2024-02-11T22:20:22.485Z,8.80
2024-02-11T22:22:53.607Z,8.79
2024-02-11T22:25:31.655Z,8.77
2024-02-11T22:28:07.754Z,8.80
2024-02-11T22:30:42.612Z,8.77
2024-02-11T22:33:18.604Z,8.77
2024-02-11T22:35:56.183Z,8.83
2024-02-11T22:38:33.373Z,8.90
2024-02-11T22:41:20.635Z,8.92
2024-02-11T22:43:52.733Z,8.82
2024-02-11T22:46:28.817Z,8.76
2024-02-11T22:49:05.396Z,8.75
2024-02-11T22:54:42.201Z,8.81
2024-02-11T22:57:38.015Z,8.83
2024-02-11T23:00:41.354Z,8.87
2024-02-11T23:03:16.841Z,8.96
2024-02-11T23:05:53.222Z,8.85
2024-02-11T23:08:28.192Z,8.90
2024-02-11T23:11:13.705Z,8.77
2024-02-11T23:13:59.115Z,8.65
2024-02-11T23:16:41.632Z,8.68
2024-02-11T23:19:30.545Z,8.75
2024-02-11T23:22:01.488Z,8.75
2024-02-11T23:24:39.157Z,8.70
2024-02-11T23:27:10.919Z,8.71
2024-02-11T23:29:57.172Z,8.75
2024-02-11T23:32:35.431Z,8.58
2024-02-11T23:35:09.866Z,8.68
2024-02-11T23:37:50.566Z,8.54
2024-02-11T23:40:24.049Z,8.54
2024-02-11T23:42:56.994Z,8.60
2024-02-11T23:45:38.181Z,8.51
2024-02-11T23:48:19.105Z,8.55
2024-02-11T23:50:54.009Z,8.45
2024-02-11T23:53:31.439Z,8.52
2024-02-11T23:56:01.984Z,8.49
2024-02-11T23:58:36.302Z,8.46
